Time;durP1;ratioP1;P1;durP2;ratioP2;P2;SDS_P1;SDS_P2;PMS_P1;PMS_P2;Temp;Humidity;BMP_temperature;BMP_pressure;BME280_temperature;BME280_humidity;BME280_pressure;Samples;Min_cycle;Max_cycle;Signal;HPM_P1;HPM_P2
2023/06/11 00:02:15;;;;;;;16.23;8.18;;;;;;;21.12;69.00;99909.78;5031759;28;20106;-82
2023/06/11 00:04:45;;;;;;;28.10;7.70;;;;;;;21.14;69.35;99917.78;5030727;28;20083;-82
2023/06/11 00:07:11;;;;;;;27.65;9.80;;;;;;;21.01;70.20;99912.25;5028759;28;20075;-84
2023/06/11 00:09:36;;;;;;;14.75;8.77;;;;;;;21.00;70.49;99910.59;5029007;28;20102;-82
2023/06/11 00:12:02;;;;;;;23.00;7.72;;;;;;;21.01;70.70;99906.78;5028301;28;20529;-83
2023/06/11 00:14:27;;;;;;;12.38;7.63;;;;;;;20.99;70.63;99917.09;5012405;28;20423;-82
2023/06/11 00:16:53;;;;;;;25.23;8.82;;;;;;;20.97;70.40;99914.59;5029187;28;20468;-82
2023/06/11 00:19:19;;;;;;;20.70;8.25;;;;;;;20.95;70.61;99916.69;5041352;28;20021;-83
2023/06/11 00:21:45;;;;;;;20.98;8.55;;;;;;;20.79;71.02;99913.53;5051087;28;20029;-82
2023/06/11 00:24:12;;;;;;;19.23;8.70;;;;;;;20.71;71.60;99911.81;5050845;28;20063;-82
2023/06/11 00:26:38;;;;;;;17.02;8.38;;;;;;;20.72;71.72;99918.97;5052104;28;20037;-82
2023/06/11 00:29:05;;;;;;;26.55;8.60;;;;;;;20.76;71.60;99919.41;5050517;28;20106;-83
2023/06/11 00:31:30;;;;;;;20.20;8.98;;;;;;;20.70;72.25;99917.50;5050720;28;20107;-82
2023/06/11 00:33:55;;;;;;;19.35;9.63;;;;;;;20.62;72.66;99913.91;5050805;28;20021;-82
2023/06/11 00:36:21;;;;;;;17.83;9.77;;;;;;;20.61;72.88;99916.81;5050712;28;20112;-83
2023/06/11 00:38:48;;;;;;;19.88;9.32;;;;;;;20.63;73.00;99921.06;5050553;28;20477;-82
2023/06/11 00:41:14;;;;;;;26.90;8.70;;;;;;;20.62;72.83;99908.44;5066203;28;20029;-82
2023/06/11 00:43:40;;;;;;;27.40;8.93;;;;;;;20.71;72.79;99908.22;5050940;28;20024;-82
2023/06/11 00:46:10;;;;;;;14.60;8.82;;;;;;;20.60;72.79;99907.81;5066658;28;20029;-81
2023/06/11 00:48:37;;;;;;;21.00;8.68;;;;;;;20.62;72.63;99919.38;5060073;28;20080;-82
2023/06/11 00:51:03;;;;;;;30.17;7.72;;;;;;;20.60;71.97;99910.53;5058029;28;20059;-84
2023/06/11 00:53:28;;;;;;;23.52;7.35;;;;;;;20.54;71.35;99911.38;5056863;28;20024;-82
2023/06/11 00:55:54;;;;;;;27.23;7.78;;;;;;;20.57;70.79;99919.16;5051963;28;20464;-82
2023/06/11 00:58:21;;;;;;;102.07;17.40;;;;;;;20.46;70.98;99903.34;5050676;28;20029;-81
2023/06/11 01:00:50;;;;;;;26.00;8.30;;;;;;;20.46;71.24;99910.69;5051807;28;20037;-83
2023/06/11 01:03:21;;;;;;;29.95;6.80;;;;;;;20.43;71.49;99916.56;5050915;28;20032;-82
2023/06/11 01:06:01;;;;;;;21.20;6.88;;;;;;;20.30;71.69;99903.75;5051821;28;20033;-86
2023/06/11 01:08:27;;;;;;;22.70;7.60;;;;;;;20.19;71.79;99901.56;5052063;28;20029;-87
2023/06/11 01:10:52;;;;;;;23.02;7.68;;;;;;;20.33;71.82;99911.53;5060384;28;20086;-83
2023/06/11 01:13:18;;;;;;;18.98;9.60;;;;;;;20.46;71.81;99919.75;5056963;28;20467;-84
2023/06/11 01:15:43;;;;;;;31.48;8.82;;;;;;;20.48;71.78;99928.59;5052287;28;20139;-82
2023/06/11 01:18:23;;;;;;;26.30;9.65;;;;;;;20.37;72.20;99925.59;5050857;28;20028;-82
2023/06/11 01:20:59;;;;;;;19.95;9.60;;;;;;;20.40;72.35;99920.56;5050532;28;20039;-81
2023/06/11 01:23:42;;;;;;;29.63;8.75;;;;;;;20.40;72.86;99920.56;5050594;28;20025;-83
2023/06/11 01:26:16;;;;;;;22.13;8.18;;;;;;;20.41;72.49;99926.88;5050195;28;20580;-84
2023/06/11 01:28:46;;;;;;;69.47;14.23;;;;;;;20.34;72.79;99921.38;5049692;28;20033;-83
2023/06/11 01:31:14;;;;;;;18.85;9.77;;;;;;;20.32;72.87;99922.63;5050024;28;20025;-83
2023/06/11 01:33:41;;;;;;;20.45;9.40;;;;;;;20.29;73.08;99928.50;5050356;28;20071;-82
2023/06/11 01:36:07;;;;;;;23.58;9.38;;;;;;;20.32;73.19;99928.94;5050696;28;20032;-82
2023/06/11 01:38:42;;;;;;;17.13;8.75;;;;;;;20.32;73.42;99934.41;5051197;28;20025;-82
2023/06/11 01:41:11;;;;;;;17.33;8.68;;;;;;;20.38;73.18;99935.47;5051397;28;20108;-80
2023/06/11 01:43:37;;;;;;;22.13;7.07;;;;;;;20.43;72.40;99936.53;5051054;28;20028;-81
2023/06/11 01:46:06;;;;;;;17.38;7.53;;;;;;;20.41;71.99;99943.25;5072184;28;20028;-81
2023/06/11 01:48:32;;;;;;;21.80;6.57;;;;;;;20.54;71.47;99948.78;5057204;28;20033;-81
2023/06/11 01:50:57;;;;;;;18.38;7.07;;;;;;;20.59;70.52;99941.63;5053846;28;20029;-82
2023/06/11 01:53:23;;;;;;;26.40;6.97;;;;;;;20.67;70.10;99958.91;5051662;28;20021;-81
2023/06/11 01:55:49;;;;;;;26.08;7.07;;;;;;;20.74;69.81;99948.81;5048424;28;20036;-81
2023/06/11 01:58:16;;;;;;;18.65;6.68;;;;;;;20.65;69.72;99945.44;5049402;28;20484;-81
2023/06/11 02:00:42;;;;;;;19.00;7.32;;;;;;;20.74;69.83;99965.22;5049134;28;20044;-81
2023/06/11 02:03:08;;;;;;;20.98;7.78;;;;;;;20.59;70.27;99963.50;5049769;28;20428;-85
2023/06/11 02:05:36;;;;;;;19.83;8.93;;;;;;;20.55;70.76;99959.47;5050323;28;20137;-86
2023/06/11 02:08:02;;;;;;;21.20;9.10;;;;;;;20.54;71.50;99963.28;5048997;28;20033;-84
2023/06/11 02:10:27;;;;;;;16.00;8.82;;;;;;;20.53;71.71;99967.06;5049608;28;20051;-83
2023/06/11 02:12:53;;;;;;;24.48;10.75;;;;;;;20.55;71.95;99962.22;5050260;28;20079;-83
2023/06/11 02:15:21;;;;;;;18.27;10.02;;;;;;;20.56;71.88;99963.91;5049642;28;20490;-82
2023/06/11 02:17:46;;;;;;;15.55;9.98;;;;;;;20.44;72.69;99965.56;5050021;28;20037;-82
2023/06/11 02:20:13;;;;;;;21.17;11.45;;;;;;;20.45;72.75;99958.19;5049251;28;20466;-81
2023/06/11 02:22:39;;;;;;;33.05;13.27;;;;;;;20.50;72.32;99959.28;5052261;28;20090;-82
2023/06/11 02:25:05;;;;;;;24.48;11.23;;;;;;;20.48;72.43;99960.53;5068774;28;20028;-81
2023/06/11 02:27:30;;;;;;;17.90;10.38;;;;;;;20.43;72.99;99968.47;5056987;28;20025;-81
2023/06/11 02:29:56;;;;;;;19.48;11.18;;;;;;;20.44;72.66;99971.00;5054556;28;20056;-83
2023/06/11 02:32:22;;;;;;;25.65;11.35;;;;;;;20.39;73.06;99965.34;5053639;28;20028;-83
2023/06/11 02:34:47;;;;;;;25.58;12.05;;;;;;;20.41;73.06;99957.78;5053719;28;20029;-82
2023/06/11 02:37:13;;;;;;;23.70;12.90;;;;;;;20.36;72.88;99952.09;5054967;28;20036;-81
2023/06/11 02:39:38;;;;;;;20.95;14.82;;;;;;;20.34;73.17;99959.63;5054033;28;20024;-83
2023/06/11 02:42:05;;;;;;;45.95;18.40;;;;;;;20.33;73.76;99981.69;5057333;28;20116;-81
2023/06/11 02:44:30;;;;;;;39.90;16.40;;;;;;;20.23;73.93;99962.91;5065019;28;20081;-82
2023/06/11 02:46:56;;;;;;;28.88;16.17;;;;;;;20.30;74.14;99979.38;5062815;28;20057;-81
2023/06/11 02:49:21;;;;;;;35.97;17.00;;;;;;;20.26;74.32;99983.53;5053067;28;20025;-81
2023/06/11 02:51:47;;;;;;;47.03;19.50;;;;;;;20.17;74.41;99966.47;5053335;28;20021;-82
2023/06/11 02:54:12;;;;;;;44.42;19.63;;;;;;;20.18;74.86;99976.34;5053229;28;20032;-81
2023/06/11 02:56:38;;;;;;;45.13;19.70;;;;;;;20.13;75.10;99973.34;5052690;28;20025;-82
2023/06/11 02:59:03;;;;;;;44.78;21.02;;;;;;;20.10;75.64;99976.50;5053571;28;20043;-82
2023/06/11 03:01:28;;;;;;;50.67;25.23;;;;;;;20.15;75.55;99973.16;5052777;28;20029;-81
2023/06/11 03:03:54;;;;;;;45.13;21.70;;;;;;;20.23;75.75;99981.19;5053162;28;20056;-82
2023/06/11 03:06:20;;;;;;;41.15;19.88;;;;;;;20.21;75.92;99986.84;5053107;28;20032;-81
2023/06/11 03:08:45;;;;;;;43.00;20.48;;;;;;;20.24;76.26;99986.47;5052665;28;20036;-82
2023/06/11 03:11:11;;;;;;;44.97;19.75;;;;;;;20.17;76.43;99974.66;5053000;28;20025;-84
2023/06/11 03:13:36;;;;;;;51.90;21.27;;;;;;;20.20;76.56;99984.31;5054092;28;20480;-81
2023/06/11 03:16:02;;;;;;;41.33;19.05;;;;;;;20.27;76.90;99983.34;5064027;28;20049;-80
2023/06/11 03:18:27;;;;;;;36.65;18.85;;;;;;;20.30;77.25;99988.41;5054687;28;20111;-83
2023/06/11 03:20:53;;;;;;;32.33;15.90;;;;;;;20.38;77.33;99982.75;5053223;28;20552;-83
2023/06/11 03:23:18;;;;;;;45.10;17.23;;;;;;;20.37;77.51;99986.53;5053479;28;20021;-82
2023/06/11 03:25:44;;;;;;;34.20;17.23;;;;;;;20.36;77.55;99987.59;5053428;28;20112;-81
2023/06/11 03:28:10;;;;;;;42.30;18.52;;;;;;;20.49;77.29;99990.34;5052966;28;20021;-84
2023/06/11 03:30:35;;;;;;;51.15;20.50;;;;;;;20.50;77.34;99992.06;5053705;28;20059;-83
2023/06/11 03:33:01;;;;;;;55.13;19.75;;;;;;;20.49;77.80;99995.81;5053049;28;20548;-84
2023/06/11 03:35:26;;;;;;;35.30;17.10;;;;;;;20.55;77.97;99988.69;5055522;28;20086;-85
2023/06/11 03:37:52;;;;;;;54.97;19.13;;;;;;;20.61;77.45;99987.88;5057175;28;20021;-83
2023/06/11 03:40:17;;;;;;;29.75;16.17;;;;;;;20.62;77.75;99990.41;5071571;28;20376;-79
2023/06/11 03:42:43;;;;;;;34.72;16.35;;;;;;;20.73;77.41;99996.34;5057589;28;20083;-84
2023/06/11 03:45:09;;;;;;;33.95;16.70;;;;;;;20.77;77.29;99994.88;5056280;28;20118;-83
2023/06/11 03:47:34;;;;;;;40.60;19.20;;;;;;;20.66;77.83;99984.53;5054641;28;20021;-83
2023/06/11 03:49:59;;;;;;;37.20;18.48;;;;;;;20.59;77.97;99990.81;5054109;28;20171;-86
2023/06/11 03:52:25;;;;;;;35.50;16.20;;;;;;;20.75;78.01;100003.28;5056313;28;20062;-85
2023/06/11 03:54:50;;;;;;;36.13;17.85;;;;;;;20.80;77.83;99997.19;5052308;28;20028;-83
2023/06/11 03:57:18;;;;;;;28.75;15.38;;;;;;;20.84;77.42;100014.88;5051883;28;20055;-85
2023/06/11 03:59:44;;;;;;;30.20;17.02;;;;;;;20.88;77.91;100007.94;5052521;28;20040;-83
2023/06/11 04:02:09;;;;;;;18.90;10.13;;;;;;;20.95;76.53;99992.38;5053180;28;20112;-85
2023/06/11 04:04:36;;;;;;;21.58;9.82;;;;;;;21.10;76.17;100010.31;5052966;28;20029;-84
2023/06/11 04:07:02;;;;;;;16.50;8.95;;;;;;;21.11;76.06;100017.50;5052282;28;20473;-84
2023/06/11 04:09:27;;;;;;;26.50;8.52;;;;;;;21.02;75.53;100002.28;5052375;28;20032;-83
2023/06/11 04:11:53;;;;;;;23.10;7.80;;;;;;;21.21;74.87;100006.16;5052386;28;20561;-85
2023/06/11 04:14:18;;;;;;;22.05;6.60;;;;;;;21.27;73.50;99996.25;5052621;28;20526;-89
2023/06/11 04:16:44;;;;;;;19.20;8.00;;;;;;;21.42;73.00;100003.22;5052507;28;20060;-89
2023/06/11 04:19:09;;;;;;;26.80;7.47;;;;;;;21.34;72.69;99995.22;5052994;28;20029;-88
2023/06/11 04:21:35;;;;;;;38.13;8.05;;;;;;;21.37;73.28;100004.91;5051838;28;20033;-89
2023/06/11 04:24:01;;;;;;;18.25;8.00;;;;;;;21.46;73.02;99993.53;5049773;28;20024;-88
2023/06/11 04:26:26;;;;;;;26.25;9.85;;;;;;;21.67;72.66;100003.44;5053481;28;20599;-88
2023/06/11 04:28:52;;;;;;;27.38;9.20;;;;;;;21.75;72.60;100000.47;5054316;28;20440;-87
2023/06/11 04:31:18;;;;;;;21.58;9.63;;;;;;;21.80;71.80;99980.69;5055862;28;20116;-88
2023/06/11 04:33:45;;;;;;;29.08;12.02;;;;;;;21.97;71.13;99996.47;5054621;28;20139;-86
2023/06/11 04:36:11;;;;;;;23.73;12.00;;;;;;;22.00;70.82;99995.19;5060267;28;20078;-84
2023/06/11 04:38:38;;;;;;;23.58;12.50;;;;;;;22.08;71.01;99997.69;5069913;28;20025;-84
2023/06/11 04:41:11;;;;;;;30.02;13.60;;;;;;;22.18;71.00;100001.69;5060523;28;20485;-85
2023/06/11 04:43:37;;;;;;;35.08;13.63;;;;;;;22.19;70.61;99995.16;5054255;28;20064;-91
2023/06/11 04:46:03;;;;;;;29.52;14.07;;;;;;;22.33;70.32;100009.63;5053329;28;20032;-91
2023/06/11 04:48:31;;;;;;;26.60;13.82;;;;;;;22.32;70.51;99999.75;5064715;28;20024;-91
2023/06/11 04:51:01;;;;;;;25.02;12.90;;;;;;;22.33;70.57;100001.41;5055021;28;20523;-89
2023/06/11 04:53:29;;;;;;;24.55;12.60;;;;;;;22.49;70.47;100005.56;5054372;28;20092;-91
2023/06/11 04:55:56;;;;;;;28.15;13.90;;;;;;;22.58;69.94;100013.34;5051548;28;20377;-93
2023/06/11 04:58:25;;;;;;;24.13;12.13;;;;;;;22.64;69.33;99993.28;5071393;28;20024;-93
2023/06/11 05:00:52;;;;;;;25.27;12.65;;;;;;;22.67;69.39;100012.06;5051729;28;20041;-91
2023/06/11 05:03:19;;;;;;;37.38;12.90;;;;;;;22.66;69.68;100002.16;5052803;28;20048;-93
2023/06/11 05:05:51;;;;;;;33.58;12.25;;;;;;;22.86;68.87;100012.19;5052717;28;20041;-91
2023/06/11 05:08:21;;;;;;;25.80;9.88;;;;;;;22.74;68.21;99993.69;5062882;28;20366;-92
2023/06/11 05:10:47;;;;;;;32.55;11.00;;;;;;;23.06;67.53;100015.63;5053226;28;20087;-91
2023/06/11 05:13:13;;;;;;;16.95;9.57;;;;;;;23.16;67.36;100008.63;5052457;28;20028;-86
2023/06/11 05:15:39;;;;;;;27.88;9.00;;;;;;;23.29;66.30;100014.03;5050593;28;20420;-85
2023/06/11 05:18:05;;;;;;;14.50;9.75;;;;;;;23.31;66.23;100011.03;5051451;28;20029;-84
2023/06/11 05:20:31;;;;;;;25.80;9.52;;;;;;;23.43;65.91;99998.31;5052050;28;20660;-83
2023/06/11 05:23:02;;;;;;;18.90;7.90;;;;;;;23.51;64.87;100011.78;5052171;28;20087;-83
2023/06/11 05:25:28;;;;;;;23.67;8.50;;;;;;;23.66;64.49;100014.19;5050657;28;20481;-92
2023/06/11 05:27:57;;;;;;;43.13;9.48;;;;;;;23.79;63.95;100019.56;5054625;28;20036;-82
2023/06/11 05:30:25;;;;;;;30.55;9.27;;;;;;;23.86;64.13;100020.34;5068076;28;20029;-87
2023/06/11 05:32:51;;;;;;;26.65;10.45;;;;;;;24.02;63.74;100029.91;5065011;28;20029;-89
2023/06/11 05:35:18;;;;;;;30.88;10.10;;;;;;;24.08;63.90;100024.34;5071071;28;20049;-88
2023/06/11 05:37:44;;;;;;;24.85;10.35;;;;;;;24.07;63.47;100005.31;5062388;28;20104;-89
2023/06/11 05:40:11;;;;;;;31.63;11.07;;;;;;;24.32;63.47;100030.88;5053704;28;20066;-89
2023/06/11 05:42:37;;;;;;;28.17;11.32;;;;;;;24.43;63.16;100030.13;5053906;28;20029;-87
2023/06/11 05:45:06;;;;;;;24.73;12.43;;;;;;;24.50;62.68;100028.13;5062689;28;20083;-87
2023/06/11 05:47:32;;;;;;;26.73;13.15;;;;;;;24.54;62.27;100029.34;5052898;28;20400;-82
2023/06/11 05:49:58;;;;;;;31.27;19.60;;;;;;;24.51;62.57;100028.97;5050453;28;20025;-84
2023/06/11 05:52:23;;;;;;;47.08;22.83;;;;;;;24.56;62.75;100031.88;5051287;28;20032;-81
2023/06/11 05:54:49;;;;;;;67.85;31.38;;;;;;;24.45;62.93;100025.25;5050897;28;20530;-88
2023/06/11 05:57:24;;;;;;;49.67;22.88;;;;;;;24.46;62.97;100032.44;5051688;28;20104;-79
2023/06/11 05:59:52;;;;;;;37.92;20.77;;;;;;;24.45;62.29;100038.97;5049315;28;20041;-80
2023/06/11 06:02:18;;;;;;;41.08;22.23;;;;;;;24.56;62.10;100040.97;5050323;28;20028;-81
2023/06/11 06:04:48;;;;;;;29.77;19.77;;;;;;;24.61;62.05;100041.13;5050954;28;20456;-83
2023/06/11 06:07:14;;;;;;;39.92;20.25;;;;;;;24.76;62.18;100060.81;5066597;28;20028;-83
2023/06/11 06:09:39;;;;;;;45.00;17.60;;;;;;;24.66;61.64;100060.53;5066437;28;20025;-91
2023/06/11 06:12:06;;;;;;;37.80;17.58;;;;;;;24.71;61.58;100057.06;5049735;28;20029;-82
2023/06/11 06:14:31;;;;;;;45.45;16.88;;;;;;;24.82;61.02;100062.69;5048520;28;20644;-84
2023/06/11 06:16:57;;;;;;;43.30;14.63;;;;;;;24.86;60.67;100063.88;5048820;28;20045;-80
2023/06/11 06:19:23;;;;;;;29.65;12.88;;;;;;;25.00;60.03;100061.81;5049351;28;20507;-83
2023/06/11 06:21:48;;;;;;;24.25;13.50;;;;;;;25.02;59.80;100058.81;5049469;28;20719;-83
2023/06/11 06:24:14;;;;;;;40.05;13.80;;;;;;;25.08;59.77;100047.72;5051486;28;20060;-77
2023/06/11 06:26:40;;;;;;;27.88;13.77;;;;;;;25.17;59.16;100045.47;5050650;28;20029;-83
2023/06/11 06:29:15;;;;;;;27.75;12.73;;;;;;;25.31;58.61;100063.50;5053913;28;20025;-81
2023/06/11 06:31:43;;;;;;;48.83;14.73;;;;;;;25.37;58.62;100062.56;5053406;28;20897;-83
2023/06/11 06:34:09;;;;;;;28.98;12.00;;;;;;;25.38;58.22;100058.75;5054558;28;20037;-79
2023/06/11 06:36:38;;;;;;;23.38;9.50;;;;;;;25.45;57.75;100059.47;5048138;28;20021;-82
2023/06/11 06:39:04;;;;;;;42.30;15.98;;;;;;;25.44;57.75;100063.31;5048252;28;20040;-80
2023/06/11 06:41:30;;;;;;;20.83;8.15;;;;;;;25.49;57.78;100055.19;5029502;28;20056;-80
2023/06/11 06:43:55;;;;;;;27.15;7.85;;;;;;;25.43;58.14;100050.59;5048235;28;20665;-78
2023/06/11 06:46:21;;;;;;;29.42;9.40;;;;;;;25.53;58.54;100059.16;5066027;28;20156;-77
2023/06/11 06:48:46;;;;;;;22.95;8.55;;;;;;;25.56;57.97;100057.84;5066839;28;20051;-80
2023/06/11 06:51:12;;;;;;;21.75;7.45;;;;;;;25.70;57.93;100059.31;5065637;28;20040;-77
2023/06/11 06:53:37;;;;;;;24.10;7.63;;;;;;;25.77;57.42;100049.88;5067773;28;20092;-80
2023/06/11 06:56:05;;;;;;;27.27;11.68;;;;;;;25.90;56.81;100057.91;5074367;28;20127;-79
2023/06/11 06:58:32;;;;;;;27.55;8.48;;;;;;;25.84;56.71;100056.09;5084092;28;20035;-80
2023/06/11 07:00:58;;;;;;;16.38;7.05;;;;;;;25.78;57.28;100042.41;5086203;28;20116;-80
2023/06/11 07:03:23;;;;;;;26.05;7.13;;;;;;;26.03;56.66;100055.97;5075283;28;20044;-78
2023/06/11 07:05:48;;;;;;;24.25;8.48;;;;;;;26.13;56.46;100056.22;5065347;28;20049;-77
2023/06/11 07:08:14;;;;;;;18.80;6.40;;;;;;;26.02;56.11;100048.81;5068023;28;20093;-76
2023/06/11 07:10:49;;;;;;;31.15;6.53;;;;;;;25.94;57.38;100048.09;5072080;28;20115;-82
2023/06/11 07:13:15;;;;;;;15.88;5.85;;;;;;;25.90;58.00;100041.34;5070734;28;20119;-82
2023/06/11 07:15:41;;;;;;;34.50;16.10;;;;;;;26.06;58.61;100050.00;5069154;28;20100;-80
2023/06/11 07:18:06;;;;;;;26.50;10.93;;;;;;;25.75;59.07;100049.25;5054812;28;20110;-81
2023/06/11 07:20:32;;;;;;;18.95;7.20;;;;;;;25.90;59.30;100046.88;5051778;28;20095;-79
2023/06/11 07:22:59;;;;;;;10.70;5.30;;;;;;;26.05;58.03;100040.06;5067456;28;20060;-77
2023/06/11 07:25:28;;;;;;;16.25;5.30;;;;;;;26.26;57.96;100045.00;5052042;28;20059;-79
2023/06/11 07:28:01;;;;;;;21.02;5.90;;;;;;;26.06;58.80;100022.44;5052872;28;20036;-76
2023/06/11 07:30:27;;;;;;;23.73;6.30;;;;;;;26.22;57.52;100038.28;5051334;28;20029;-82
2023/06/11 07:32:56;;;;;;;75.68;10.98;;;;;;;26.27;52.95;100032.88;5050754;28;20078;-79
2023/06/11 07:35:25;;;;;;;15.90;5.15;;;;;;;26.49;53.15;100032.00;5051158;28;20536;-90
2023/06/11 07:37:51;;;;;;;34.25;6.18;;;;;;;26.48;54.65;100035.03;5050918;28;20114;-83
2023/06/11 07:40:17;;;;;;;32.28;5.95;;;;;;;26.36;55.58;100012.97;5053010;28;20033;-85
2023/06/11 07:42:43;;;;;;;29.08;6.43;;;;;;;26.44;54.24;100022.78;5052530;28;20017;-83
2023/06/11 07:45:09;;;;;;;19.55;5.15;;;;;;;26.67;54.69;100035.69;5051725;28;20296;-80
2023/06/11 07:47:35;;;;;;;26.40;5.00;;;;;;;26.72;53.92;100031.13;5052518;28;20062;-78
2023/06/11 07:50:01;;;;;;;13.73;4.90;;;;;;;26.85;53.80;100050.19;5050454;28;20025;-78
2023/06/11 07:52:27;;;;;;;24.85;5.43;;;;;;;26.71;52.79;100036.88;5050615;28;20489;-79
2023/06/11 07:54:52;;;;;;;12.73;3.97;;;;;;;26.75;51.90;100040.84;5050393;28;20108;-77
2023/06/11 07:57:18;;;;;;;24.63;5.05;;;;;;;26.64;52.86;100039.78;5050510;28;20074;-79
2023/06/11 07:59:43;;;;;;;17.95;5.15;;;;;;;26.62;53.15;100039.19;5049999;28;20045;-77
2023/06/11 08:02:10;;;;;;;21.23;9.13;;;;;;;26.63;52.75;100051.06;5050225;28;20023;-78
2023/06/11 08:04:36;;;;;;;16.38;5.78;;;;;;;26.70;52.59;100057.25;5050183;28;20041;-78
2023/06/11 08:07:03;;;;;;;13.98;4.72;;;;;;;26.74;51.98;100051.03;5050534;28;20078;-79
2023/06/11 08:09:29;;;;;;;19.02;4.80;;;;;;;26.86;51.49;100056.53;5050430;28;20497;-78
2023/06/11 08:11:54;;;;;;;13.80;4.85;;;;;;;26.94;51.48;100054.22;5051954;28;20036;-81
2023/06/11 08:14:21;;;;;;;13.60;4.63;;;;;;;26.81;51.50;100050.94;5052948;28;20028;-82
2023/06/11 08:16:46;;;;;;;26.45;6.18;;;;;;;26.75;55.85;100043.59;5053317;28;20114;-81
2023/06/11 08:19:12;;;;;;;15.65;5.45;;;;;;;26.71;56.45;100043.25;5050799;28;20033;-82
2023/06/11 08:21:38;;;;;;;33.95;6.32;;;;;;;26.70;57.98;100030.50;5053622;28;20031;-84
2023/06/11 08:24:05;;;;;;;29.05;6.32;;;;;;;26.71;60.05;100054.28;5056460;28;20040;-84
2023/06/11 08:26:30;;;;;;;16.58;5.97;;;;;;;26.53;61.62;100057.19;5056208;28;20032;-79
2023/06/11 08:28:56;;;;;;;22.15;6.07;;;;;;;26.44;62.42;100069.69;5046671;28;20047;-79
2023/06/11 08:31:21;;;;;;;33.15;6.38;;;;;;;26.16;62.38;100050.28;5050078;28;20044;-80
2023/06/11 08:33:47;;;;;;;38.00;6.43;;;;;;;26.34;63.11;100074.94;5050457;28;20446;-77
2023/06/11 08:36:12;;;;;;;16.98;5.82;;;;;;;26.39;61.89;100066.81;5051565;28;20064;-79
2023/06/11 08:38:38;;;;;;;13.45;5.68;;;;;;;26.37;60.29;100075.31;5057106;28;20032;-77
2023/06/11 08:41:03;;;;;;;13.77;5.68;;;;;;;26.48;60.25;100073.66;5050462;28;20139;-77
2023/06/11 08:43:29;;;;;;;43.92;7.03;;;;;;;26.47;59.50;100075.56;5051294;28;20207;-79
2023/06/11 08:45:55;;;;;;;18.67;5.63;;;;;;;26.43;61.07;100071.59;5052161;28;20087;-87
2023/06/11 08:48:23;;;;;;;17.75;5.40;;;;;;;26.34;62.10;100066.69;5051157;28;20156;-86
2023/06/11 08:50:53;;;;;;;14.93;5.05;;;;;;;26.11;62.53;100052.88;5066214;28;20040;-85
2023/06/11 08:53:19;;;;;;;21.23;5.75;;;;;;;26.17;64.21;100071.25;5051847;28;20017;-80
2023/06/11 08:55:45;;;;;;;16.80;6.10;;;;;;;26.04;64.64;100066.78;5049618;28;20033;-80
2023/06/11 08:58:13;;;;;;;22.70;6.13;;;;;;;25.93;65.84;100092.44;5050142;28;20044;-79
2023/06/11 09:00:39;;;;;;;23.52;6.22;;;;;;;25.93;66.42;100097.94;5050125;28;20624;-79
2023/06/11 09:03:05;;;;;;;23.95;6.55;;;;;;;25.90;66.87;100074.44;5049473;28;20029;-78
2023/06/11 09:05:31;;;;;;;15.02;6.50;;;;;;;25.90;66.33;100092.91;5051086;28;20031;-81
2023/06/11 09:07:57;;;;;;;24.58;6.18;;;;;;;25.88;64.05;100087.63;5049693;28;20037;-81
2023/06/11 09:10:23;;;;;;;19.73;5.68;;;;;;;25.99;60.89;100081.25;5049117;28;20078;-81
2023/06/11 09:12:49;;;;;;;100.70;11.30;;;;;;;26.04;60.94;100071.44;5049666;28;20057;-82
2023/06/11 09:15:15;;;;;;;45.97;6.82;;;;;;;26.10;60.40;100087.03;5050352;28;20080;-79
2023/06/11 09:17:43;;;;;;;28.13;5.88;;;;;;;26.20;61.09;100081.81;5050523;28;20021;-78
2023/06/11 09:20:15;;;;;;;30.40;5.13;;;;;;;26.24;59.60;100080.22;5051687;28;20036;-82
2023/06/11 09:22:42;;;;;;;26.25;5.00;;;;;;;26.25;59.06;100087.44;5053007;28;20028;-81
2023/06/11 09:25:09;;;;;;;10.82;4.25;;;;;;;26.24;57.14;100082.97;5029895;28;20128;-77
2023/06/11 09:27:36;;;;;;;11.32;3.45;;;;;;;26.44;55.80;100087.06;5048886;28;20021;-82
2023/06/11 09:30:11;;;;;;;8.18;3.95;;;;;;;26.38;56.36;100085.28;5048868;28;20040;-77
2023/06/11 09:32:41;;;;;;;11.82;4.10;;;;;;;26.37;56.75;100085.50;5047358;28;20515;-80
2023/06/11 09:35:08;;;;;;;11.88;4.15;;;;;;;26.32;56.69;100088.16;5048671;28;20033;-81
2023/06/11 09:37:45;;;;;;;10.93;3.55;;;;;;;26.12;55.36;100091.22;5048875;28;20031;-81
2023/06/11 09:40:14;;;;;;;33.85;6.45;;;;;;;26.26;55.63;100094.63;5048369;28;20037;-81
2023/06/11 09:42:43;;;;;;;11.38;3.75;;;;;;;26.22;55.86;100086.00;5049456;28;20028;-86
2023/06/11 09:45:19;;;;;;;12.15;3.65;;;;;;;26.30;55.63;100085.63;5052688;28;20048;-88
2023/06/11 09:47:46;;;;;;;17.13;4.07;;;;;;;26.21;55.50;100076.03;5050356;28;20055;-82
2023/06/11 09:50:16;;;;;;;10.23;4.07;;;;;;;26.35;54.75;100093.19;5049170;28;20519;-79
2023/06/11 09:52:43;;;;;;;11.85;4.60;;;;;;;26.30;54.28;100093.03;5048313;28;20045;-80
2023/06/11 09:55:10;;;;;;;8.93;3.50;;;;;;;26.34;52.74;100097.00;5047994;28;20140;-81
2023/06/11 09:57:40;;;;;;;8.57;3.60;;;;;;;26.43;54.61;100096.41;5066104;28;20071;-77
2023/06/11 10:00:11;;;;;;;14.52;3.17;;;;;;;26.39;53.44;100089.69;5062141;28;20099;-78
2023/06/11 10:02:42;;;;;;;15.05;3.22;;;;;;;26.31;53.50;100086.47;5045053;28;20052;-79
2023/06/11 10:05:09;;;;;;;6.68;3.22;;;;;;;26.49;52.81;100094.59;5045439;28;20646;-79
2023/06/11 10:07:43;;;;;;;9.85;2.75;;;;;;;26.56;52.54;100076.03;5048337;28;20025;-81
2023/06/11 10:10:11;;;;;;;23.80;3.67;;;;;;;26.51;53.03;100070.41;5051530;28;20040;-85
2023/06/11 10:12:37;;;;;;;16.80;4.03;;;;;;;26.55;54.61;100081.75;5049379;28;20090;-83
2023/06/11 10:15:06;;;;;;;12.18;4.15;;;;;;;26.43;55.57;100079.03;5047207;28;20052;-79
2023/06/11 10:17:32;;;;;;;13.30;4.78;;;;;;;26.43;55.81;100084.53;5052811;28;20025;-85
2023/06/11 10:19:57;;;;;;;14.85;3.60;;;;;;;26.35;56.63;100076.66;5052653;28;20102;-80
2023/06/11 10:22:34;;;;;;;21.40;9.98;;;;;;;26.27;56.78;100069.56;5046304;28;20361;-79
2023/06/11 10:25:03;;;;;;;11.75;4.00;;;;;;;26.29;56.35;100061.06;5047705;28;20045;-77
2023/06/11 10:27:42;;;;;;;11.13;3.67;;;;;;;26.53;56.72;100076.50;5046473;28;20526;-79
2023/06/11 10:30:08;;;;;;;9.02;3.95;;;;;;;26.45;55.87;100061.16;5048391;28;20055;-81
2023/06/11 10:32:34;;;;;;;18.45;4.35;;;;;;;26.60;55.97;100046.88;5049849;28;20151;-78
2023/06/11 10:35:06;;;;;;;15.55;4.90;;;;;;;26.62;55.96;100072.28;5050972;28;20389;-81
2023/06/11 10:37:40;;;;;;;;;;;;;;;26.71;55.83;100081.88;5048298;28;20115;-80
2023/06/11 10:40:08;;;;;;;19.52;5.30;;;;;;;26.53;56.46;100079.25;5047957;28;19924;-79
2023/06/11 10:42:41;;;;;;;9.90;4.05;;;;;;;26.46;57.18;100060.06;5049431;28;20036;-78
2023/06/11 10:45:12;;;;;;;6.95;3.53;;;;;;;26.24;58.18;100072.78;5054147;28;20037;-81
2023/06/11 10:47:45;;;;;;;21.92;5.13;;;;;;;26.48;58.36;100077.22;5052351;28;20021;-79
2023/06/11 10:50:13;;;;;;;34.20;5.95;;;;;;;26.70;57.94;100069.13;5052003;28;20094;-80
2023/06/11 10:52:51;;;;;;;16.98;3.92;;;;;;;26.98;56.89;100071.97;5051390;28;20550;-82
2023/06/11 10:55:21;;;;;;;17.10;4.63;;;;;;;26.85;57.24;100055.69;5051200;28;20411;-79
2023/06/11 10:57:51;;;;;;;7.75;4.22;;;;;;;26.90;57.55;100075.13;5051831;28;20021;-78
2023/06/11 11:00:17;;;;;;;24.75;6.43;;;;;;;26.74;58.09;100070.34;5051423;28;20048;-82
2023/06/11 11:02:43;;;;;;;20.55;3.78;;;;;;;26.50;59.09;100050.25;5051523;28;20144;-80
2023/06/11 11:05:09;;;;;;;23.02;5.28;;;;;;;26.42;59.45;100058.88;5053403;28;20108;-83
2023/06/11 11:07:36;;;;;;;56.60;7.32;;;;;;;26.40;59.45;100074.00;5065828;28;20025;-82
2023/06/11 11:10:06;;;;;;;14.25;4.20;;;;;;;26.55;59.89;100071.56;5054301;28;20116;-81
2023/06/11 11:12:38;;;;;;;14.15;3.83;;;;;;;26.86;59.28;100068.41;5051572;28;20380;-79
2023/06/11 11:15:05;;;;;;;17.10;5.25;;;;;;;27.08;58.82;100065.00;5052990;28;20515;-79
2023/06/11 11:17:31;;;;;;;20.63;4.18;;;;;;;27.00;57.99;100056.00;5051876;28;20043;-82